createdAt,value
2023-04-18T00:01:08.125Z,55.50
2023-04-18T00:03:38.557Z,58.00
2023-04-18T00:06:07.157Z,60.00
2023-04-18T00:08:35.204Z,57.00
2023-04-18T00:11:03.933Z,52.70
2023-04-18T00:13:32.049Z,51.00
2023-04-18T00:16:00.280Z,50.30
2023-04-18T00:18:28.458Z,49.90
2023-04-18T00:20:56.855Z,49.50
2023-04-18T00:23:25.016Z,49.30
2023-04-18T00:25:53.339Z,48.60
2023-04-18T00:28:21.462Z,48.90
2023-04-18T00:30:50.026Z,47.50
2023-04-18T00:33:18.815Z,46.40
2023-04-18T00:35:46.660Z,45.70
2023-04-18T00:38:15.912Z,44.90
2023-04-18T00:40:44.271Z,44.60
2023-04-18T00:43:14.967Z,44.00
2023-04-18T00:45:43.562Z,43.20
2023-04-18T00:48:12.140Z,42.80
2023-04-18T00:50:40.829Z,47.50
2023-04-18T00:53:11.473Z,52.10
2023-04-18T00:55:40.278Z,54.70
2023-04-18T00:58:09.611Z,57.00
2023-04-18T01:00:38.253Z,59.00
2023-04-18T01:03:06.437Z,60.30
2023-04-18T01:05:34.933Z,54.10
2023-04-18T01:08:05.547Z,51.10
2023-04-18T01:10:36.890Z,50.40
2023-04-18T01:13:31.124Z,57.40
2023-04-18T01:15:59.360Z,60.20
2023-04-18T01:18:27.711Z,61.60
2023-04-18T01:20:55.986Z,62.00
2023-04-18T01:23:24.270Z,55.30
2023-04-18T01:25:52.787Z,53.00
2023-04-18T01:28:21.921Z,52.40
2023-04-18T01:30:50.335Z,59.10
2023-04-18T01:33:18.410Z,61.40
2023-04-18T01:35:48.255Z,62.70
2023-04-18T01:38:16.548Z,64.10
2023-04-18T01:40:44.722Z,58.40
2023-04-18T01:43:12.919Z,54.90
2023-04-18T01:45:41.150Z,52.90
2023-04-18T01:48:10.063Z,52.00
2023-04-18T01:50:38.141Z,59.20
2023-04-18T01:53:06.542Z,61.40
2023-04-18T01:55:34.565Z,63.00
2023-04-18T01:58:02.716Z,64.60
2023-04-18T02:00:30.988Z,57.80
2023-04-18T02:03:02.421Z,54.80
2023-04-18T02:05:30.971Z,53.00
2023-04-18T02:08:00.586Z,57.30
2023-04-18T02:10:28.823Z,60.80
2023-04-18T02:12:57.021Z,62.70
2023-04-18T02:15:25.431Z,64.30
2023-04-18T02:17:53.526Z,64.50
2023-04-18T02:20:24.584Z,57.80
2023-04-18T02:22:52.970Z,54.80
2023-04-18T02:25:22.457Z,53.00
2023-04-18T02:27:51.055Z,51.70
2023-04-18T02:30:19.285Z,57.60
2023-04-18T02:32:47.378Z,60.70
2023-04-18T02:35:15.845Z,62.20
2023-04-18T02:37:43.917Z,63.60
2023-04-18T02:40:13.803Z,59.80
2023-04-18T02:42:42.282Z,55.20
2023-04-18T02:45:11.002Z,53.30
2023-04-18T02:47:51.253Z,52.00
2023-04-18T02:50:23.448Z,50.60
2023-04-18T02:52:52.469Z,49.40
2023-04-18T02:55:22.699Z,48.40
2023-04-18T02:57:53.776Z,47.40
2023-04-18T03:00:44.440Z,46.30
2023-04-18T03:03:41.794Z,45.60
2023-04-18T03:06:24.037Z,45.50
2023-04-18T03:08:54.046Z,51.80
2023-04-18T03:11:23.046Z,55.10
2023-04-18T03:13:51.713Z,57.40
2023-04-18T03:16:20.621Z,59.40
2023-04-18T03:18:49.930Z,61.00
2023-04-18T03:21:19.211Z,59.80
2023-04-18T03:23:47.480Z,54.20
2023-04-18T03:26:16.261Z,51.90
2023-04-18T03:28:45.943Z,53.70
2023-04-18T03:31:14.816Z,59.00
2023-04-18T03:33:44.994Z,61.20
2023-04-18T03:36:16.040Z,62.90
2023-04-18T03:38:45.114Z,63.90
2023-04-18T03:41:13.054Z,57.90
2023-04-18T03:43:41.168Z,55.10
2023-04-18T03:46:09.648Z,52.50
2023-04-18T03:48:38.517Z,55.00
2023-04-18T03:51:12.242Z,60.00
2023-04-18T03:53:40.786Z,61.90
2023-04-18T03:56:09.028Z,63.80
2023-04-18T03:59:06.504Z,64.40
2023-04-18T04:01:34.669Z,57.60
2023-04-18T04:04:04.369Z,54.70
2023-04-18T04:06:32.716Z,53.00
2023-04-18T04:09:01.292Z,58.00
2023-04-18T04:11:30.497Z,61.20
2023-04-18T04:13:59.335Z,63.40
2023-04-18T04:16:34.683Z,64.30
2023-04-18T04:19:03.925Z,66.00
2023-04-18T04:21:38.641Z,61.30
2023-04-18T04:24:10.088Z,56.70
2023-04-18T04:26:42.619Z,54.50
2023-04-18T04:29:15.201Z,56.10
2023-04-18T04:31:45.446Z,61.40
2023-04-18T04:34:17.514Z,63.40
2023-04-18T04:36:46.549Z,65.00
2023-04-18T04:39:15.917Z,66.70
2023-04-18T04:42:00.546Z,62.20
2023-04-18T04:44:33.190Z,57.40
2023-04-18T04:47:01.593Z,55.30
2023-04-18T04:49:35.020Z,54.20
2023-04-18T04:52:05.164Z,61.00
2023-04-18T04:54:33.374Z,63.10
2023-04-18T04:57:02.820Z,64.70
2023-04-18T04:59:31.353Z,66.10
2023-04-18T05:01:59.495Z,67.30
2023-04-18T05:04:28.153Z,61.60
2023-04-18T05:06:57.072Z,57.50
2023-04-18T05:09:25.302Z,55.60
2023-04-18T05:11:53.442Z,54.80
2023-04-18T05:14:21.736Z,61.40
2023-04-18T05:16:49.820Z,63.20
2023-04-18T05:19:18.167Z,65.10
2023-04-18T05:21:46.455Z,66.60
2023-04-18T05:24:14.875Z,65.10
2023-04-18T05:26:43.722Z,59.00
2023-04-18T05:29:11.975Z,56.60
2023-04-18T05:31:40.286Z,54.80
2023-04-18T05:34:08.476Z,54.40
2023-04-18T05:36:37.148Z,60.80
2023-04-18T05:39:05.134Z,62.80
2023-04-18T05:41:33.304Z,64.20
2023-04-18T05:44:05.444Z,66.40
2023-04-18T05:46:34.303Z,65.00
2023-04-18T05:49:02.751Z,58.90
2023-04-18T05:51:31.039Z,56.10
2023-04-18T05:53:59.287Z,54.80
2023-04-18T05:56:27.589Z,61.10
2023-04-18T05:58:56.010Z,63.90
2023-04-18T06:01:24.465Z,65.10
2023-04-18T06:03:52.831Z,66.90
2023-04-18T06:06:21.968Z,61.40
2023-04-18T06:08:50.190Z,57.40
2023-04-18T06:11:18.279Z,55.40
2023-04-18T06:13:46.545Z,56.50
2023-04-18T06:16:15.014Z,61.90
2023-04-18T06:18:43.210Z,64.10
2023-04-18T06:21:11.468Z,65.70
2023-04-18T06:23:39.734Z,67.00
2023-04-18T06:26:08.115Z,63.00
2023-04-18T06:28:36.447Z,58.10
2023-04-18T06:31:04.816Z,55.70
2023-04-18T06:33:34.094Z,55.40
2023-04-18T06:36:02.308Z,61.40
2023-04-18T06:38:30.718Z,63.80
2023-04-18T06:40:58.833Z,65.30
2023-04-18T06:43:27.109Z,66.10
2023-04-18T06:45:56.384Z,66.90
2023-04-18T06:48:24.493Z,59.90
2023-04-18T06:50:52.825Z,57.00
2023-04-18T06:53:21.103Z,55.20
2023-04-18T06:55:49.661Z,59.20
2023-04-18T06:58:17.887Z,63.40
2023-04-18T07:00:46.070Z,65.60
2023-04-18T07:03:14.496Z,66.80
2023-04-18T07:05:42.806Z,68.50
2023-04-18T07:08:11.045Z,64.20
2023-04-18T07:10:39.158Z,59.80
2023-04-18T07:13:07.250Z,57.40
2023-04-18T07:15:36.091Z,55.50
2023-04-18T07:18:04.479Z,53.90
2023-04-18T07:20:32.651Z,52.40
2023-04-18T07:23:00.896Z,51.50
2023-04-18T07:25:29.119Z,51.00
2023-04-18T07:27:57.456Z,58.10
2023-04-18T07:30:25.592Z,63.40
2023-04-18T07:32:54.024Z,65.20
2023-04-18T07:35:22.476Z,66.10
2023-04-18T07:37:50.819Z,67.50
2023-04-18T07:40:19.161Z,60.90
2023-04-18T07:42:47.401Z,58.00
2023-04-18T07:45:15.737Z,56.60
2023-04-18T07:47:44.009Z,54.30
2023-04-18T07:50:12.558Z,53.30
2023-04-18T07:52:40.815Z,59.80
2023-04-18T07:55:09.367Z,62.70
2023-04-18T07:57:37.519Z,64.40
2023-04-18T08:00:06.440Z,66.50
2023-04-18T08:02:40.808Z,67.70
2023-04-18T08:05:09.613Z,60.80
2023-04-18T08:07:37.619Z,58.20
2023-04-18T08:10:06.313Z,57.30
2023-04-18T08:12:34.244Z,62.40
2023-04-18T08:15:02.890Z,64.90
2023-04-18T08:17:31.117Z,66.50
2023-04-18T08:19:59.294Z,67.90
2023-04-18T08:22:27.608Z,68.20
2023-04-18T08:25:04.395Z,68.40
2023-04-18T08:27:33.733Z,61.60
2023-04-18T08:30:02.125Z,57.80
2023-04-18T08:32:31.086Z,57.50
2023-04-18T08:34:59.319Z,63.30
2023-04-18T08:37:27.759Z,65.70
2023-04-18T08:39:55.996Z,67.10
2023-04-18T08:42:24.437Z,68.40
2023-04-18T08:44:53.242Z,67.70
2023-04-18T08:47:21.125Z,61.40
2023-04-18T08:49:49.410Z,58.60
2023-04-18T08:52:18.161Z,56.80
2023-04-18T08:54:47.211Z,60.70
2023-04-18T08:57:16.831Z,64.50
2023-04-18T08:59:50.385Z,65.70
2023-04-18T09:02:19.404Z,66.90
2023-04-18T09:04:48.159Z,69.50
2023-04-18T09:07:17.518Z,63.60
2023-04-18T09:09:54.145Z,59.30
2023-04-18T09:12:27.338Z,63.30
2023-04-18T09:14:58.037Z,65.90
2023-04-18T09:17:34.969Z,67.20
2023-04-18T09:20:04.038Z,68.00
2023-04-18T09:22:53.266Z,69.40
2023-04-18T09:25:25.703Z,69.60
2023-04-18T09:27:54.603Z,68.20
2023-04-18T09:30:37.574Z,60.50
2023-04-18T09:33:08.157Z,58.30
2023-04-18T09:35:40.242Z,64.00
2023-04-18T09:38:08.956Z,65.90
2023-04-18T09:40:37.418Z,68.10
2023-04-18T09:43:25.711Z,69.50
2023-04-18T09:45:54.065Z,70.90
2023-04-18T09:48:22.992Z,63.90
2023-04-18T09:50:51.065Z,60.60
2023-04-18T09:53:21.001Z,62.80
2023-04-18T09:55:56.918Z,65.90
2023-04-18T09:58:29.878Z,68.30
2023-04-18T10:00:58.715Z,70.60
2023-04-18T10:03:32.287Z,71.20
2023-04-18T10:06:00.760Z,67.50
2023-04-18T10:08:29.215Z,63.00
2023-04-18T10:10:57.463Z,61.00
2023-04-18T10:13:28.424Z,66.40
2023-04-18T10:15:57.126Z,68.80
2023-04-18T10:18:25.135Z,70.40
2023-04-18T10:21:02.275Z,72.00
2023-04-18T10:23:33.513Z,68.60
2023-04-18T10:26:08.994Z,63.50
2023-04-18T10:28:58.083Z,61.20
2023-04-18T10:31:39.938Z,67.40
2023-04-18T10:34:08.442Z,69.50
2023-04-18T10:36:36.824Z,71.80
2023-04-18T10:39:24.241Z,72.60
2023-04-18T10:41:52.724Z,65.60
2023-04-18T10:44:23.201Z,62.40
2023-04-18T10:46:52.010Z,60.90
2023-04-18T10:49:25.886Z,67.20
2023-04-18T10:51:57.426Z,70.10
2023-04-18T10:54:52.954Z,72.10
2023-04-18T10:57:21.542Z,71.20
2023-04-18T10:59:51.664Z,65.00
2023-04-18T11:02:30.649Z,62.40
2023-04-18T11:05:01.020Z,60.30
2023-04-18T11:07:45.813Z,58.70
2023-04-18T11:10:16.729Z,57.40
2023-04-18T11:12:45.051Z,55.90
2023-04-18T11:15:18.063Z,55.00
2023-04-18T11:17:46.510Z,54.00
2023-04-18T11:20:15.440Z,52.70
2023-04-18T11:23:01.171Z,52.00
2023-04-18T11:25:32.090Z,50.90
2023-04-18T11:28:02.282Z,50.60
2023-04-18T11:30:41.541Z,50.00
2023-04-18T11:33:11.463Z,49.30
2023-04-18T11:35:44.534Z,48.70
2023-04-18T11:38:15.877Z,48.40
2023-04-18T11:40:51.143Z,48.50
2023-04-18T11:43:24.464Z,47.50
2023-04-18T11:46:00.745Z,48.60
2023-04-18T11:48:36.686Z,48.70
2023-04-18T11:51:06.747Z,47.90
2023-04-18T11:53:39.379Z,47.70
2023-04-18T11:56:07.975Z,46.90
2023-04-18T11:58:37.258Z,49.00
2023-04-18T12:01:27.190Z,56.40
2023-04-18T12:04:06.501Z,59.10
2023-04-18T12:06:52.801Z,62.30
2023-04-18T12:09:23.709Z,59.80
2023-04-18T12:11:58.835Z,55.70
2023-04-18T12:14:27.807Z,53.70
2023-04-18T12:16:55.847Z,52.60
2023-04-18T12:19:28.486Z,51.70
2023-04-18T12:22:02.102Z,50.80
2023-04-18T12:24:30.483Z,50.10
2023-04-18T12:26:59.620Z,49.50
2023-04-18T12:29:29.606Z,48.70
2023-04-18T12:31:58.010Z,48.20
2023-04-18T12:34:26.114Z,48.00
2023-04-18T12:36:54.709Z,47.50
2023-04-18T12:39:22.647Z,46.60
2023-04-18T12:41:50.804Z,46.70
2023-04-18T12:44:19.079Z,46.10
2023-04-18T12:46:47.213Z,45.80
2023-04-18T12:49:15.462Z,46.00
2023-04-18T12:51:43.663Z,46.00
2023-04-18T12:54:11.974Z,45.80
2023-04-18T12:56:40.178Z,46.20
2023-04-18T12:59:08.454Z,45.10
2023-04-18T13:01:36.628Z,45.10
2023-04-18T13:04:12.584Z,45.30
2023-04-18T13:06:41.781Z,45.00
2023-04-18T13:09:09.954Z,52.00
2023-04-18T13:11:38.120Z,55.40
2023-04-18T13:14:07.384Z,57.80
2023-04-18T13:16:35.568Z,60.00
2023-04-18T13:19:04.164Z,57.00
2023-04-18T13:21:32.478Z,53.00
2023-04-18T13:24:00.683Z,51.50
2023-04-18T13:26:28.905Z,50.70
2023-04-18T13:28:57.061Z,49.50
2023-04-18T13:31:25.562Z,49.20
2023-04-18T13:33:53.752Z,48.50
2023-04-18T13:36:21.971Z,47.80
2023-04-18T13:38:50.705Z,53.70
2023-04-18T13:41:18.996Z,57.30
2023-04-18T13:43:47.107Z,60.40
2023-04-18T13:46:20.048Z,61.60
2023-04-18T13:48:48.340Z,60.90
2023-04-18T13:51:16.617Z,55.80
2023-04-18T13:53:44.721Z,53.50
2023-04-18T13:56:13.023Z,51.60
2023-04-18T13:58:41.317Z,50.80
2023-04-18T14:01:09.413Z,58.20
2023-04-18T14:03:38.845Z,61.30
2023-04-18T14:06:08.340Z,63.30
2023-04-18T14:08:36.689Z,65.30
2023-04-18T14:11:04.772Z,60.20
2023-04-18T14:13:33.088Z,57.00
2023-04-18T14:16:02.228Z,54.60
2023-04-18T14:18:30.486Z,60.70
2023-04-18T14:20:58.785Z,63.00
2023-04-18T14:23:26.946Z,65.40
2023-04-18T14:25:55.132Z,66.50
2023-04-18T14:28:23.527Z,62.50
2023-04-18T14:30:52.260Z,58.60
2023-04-18T14:33:20.582Z,56.30
2023-04-18T14:35:48.923Z,61.90
2023-04-18T14:38:17.037Z,64.60
2023-04-18T14:40:45.306Z,66.30
2023-04-18T14:43:13.711Z,67.70
2023-04-18T14:45:41.836Z,61.50
2023-04-18T14:48:11.751Z,58.70
2023-04-18T14:50:39.949Z,56.10
2023-04-18T14:53:08.820Z,58.90
2023-04-18T14:55:37.312Z,62.90
2023-04-18T14:58:05.519Z,65.30
2023-04-18T15:00:33.730Z,67.30
2023-04-18T15:03:05.518Z,61.40
2023-04-18T15:05:34.227Z,58.20
2023-04-18T15:08:02.321Z,56.00
2023-04-18T15:10:30.472Z,59.80
2023-04-18T15:12:58.682Z,63.00
2023-04-18T15:15:26.814Z,65.30
2023-04-18T15:17:55.204Z,66.80
2023-04-18T15:20:24.116Z,60.90
2023-04-18T15:22:52.813Z,57.60
2023-04-18T15:25:20.743Z,55.10
2023-04-18T15:27:48.969Z,55.40
2023-04-18T15:30:17.776Z,60.70
2023-04-18T15:32:45.818Z,63.00
2023-04-18T15:35:14.030Z,65.20
2023-04-18T15:37:42.183Z,60.60
2023-04-18T15:40:11.286Z,57.50
2023-04-18T15:42:40.156Z,55.00
2023-04-18T15:45:08.951Z,53.00
2023-04-18T15:47:36.901Z,56.40
2023-04-18T15:50:05.700Z,60.60
2023-04-18T15:52:33.926Z,63.00
2023-04-18T15:55:02.353Z,65.40
2023-04-18T15:57:30.546Z,59.70
2023-04-18T15:59:59.018Z,56.40
2023-04-18T16:02:27.437Z,54.30
2023-04-18T16:04:55.774Z,52.40
2023-04-18T16:07:23.829Z,57.70
2023-04-18T16:09:52.119Z,61.20
2023-04-18T16:12:20.227Z,63.40
2023-04-18T16:14:48.515Z,63.80
2023-04-18T16:17:19.565Z,58.20
2023-04-18T16:19:47.970Z,54.70
2023-04-18T16:22:16.257Z,52.50
2023-04-18T16:24:44.416Z,53.20
2023-04-18T16:27:12.621Z,58.70
2023-04-18T16:29:40.923Z,61.20
2023-04-18T16:32:12.088Z,63.40
2023-04-18T16:34:40.316Z,57.40
2023-04-18T16:37:08.744Z,54.80
2023-04-18T16:39:36.882Z,52.40
2023-04-18T16:42:05.318Z,51.00
2023-04-18T16:44:33.680Z,50.00
2023-04-18T16:47:01.891Z,48.70
2023-04-18T16:49:30.198Z,48.10
2023-04-18T16:51:58.528Z,47.20
2023-04-18T16:54:26.697Z,46.40
2023-04-18T16:56:56.374Z,46.20
2023-04-18T16:59:24.741Z,53.00
2023-04-18T17:01:53.140Z,56.70
2023-04-18T17:07:01.565Z,59.80
2023-04-18T17:09:30.694Z,62.10
2023-04-18T17:11:58.887Z,59.60
2023-04-18T17:14:27.117Z,55.10
2023-04-18T17:16:55.224Z,52.90
2023-04-18T17:19:23.912Z,51.50
2023-04-18T17:21:52.138Z,50.60
2023-04-18T17:24:20.642Z,49.70
2023-04-18T17:26:49.028Z,49.00
2023-04-18T17:29:18.116Z,48.10
2023-04-18T17:31:45.914Z,47.80
2023-04-18T17:34:14.189Z,47.20
2023-04-18T17:36:42.464Z,46.90
2023-04-18T17:39:10.952Z,46.80
2023-04-18T17:41:39.385Z,45.90
2023-04-18T17:44:07.973Z,45.90
2023-04-18T17:46:36.456Z,45.20
2023-04-18T17:49:04.831Z,44.90
2023-04-18T17:51:33.137Z,45.00
2023-04-18T17:54:01.341Z,44.30
2023-04-18T17:56:29.487Z,44.20
2023-04-18T17:58:58.193Z,44.30
2023-04-18T18:01:26.447Z,44.40
2023-04-18T18:03:54.946Z,44.70
2023-04-18T18:06:23.543Z,44.90
2023-04-18T18:08:52.562Z,44.90
2023-04-18T18:11:20.872Z,45.60
2023-04-18T18:13:49.486Z,46.90
2023-04-18T18:16:17.811Z,47.70
2023-04-18T18:18:46.564Z,48.00
2023-04-18T18:21:14.984Z,48.80
2023-04-18T18:23:43.868Z,48.20
2023-04-18T18:30:00.921Z,46.90
2023-04-18T18:32:29.037Z,56.50
2023-04-18T18:34:57.298Z,56.40
2023-04-18T18:37:25.624Z,53.60
2023-04-18T18:39:55.620Z,52.90
2023-04-18T18:42:24.028Z,52.50
2023-04-18T18:44:52.303Z,52.00
2023-04-18T18:47:20.699Z,51.70
2023-04-18T18:49:49.149Z,51.50
2023-04-18T18:52:17.258Z,51.60
2023-04-18T18:54:45.505Z,51.90
2023-04-18T18:57:13.824Z,49.50
2023-04-18T18:59:41.981Z,48.60
2023-04-18T19:02:10.277Z,48.20
2023-04-18T19:04:38.741Z,47.20
2023-04-18T19:07:07.064Z,46.60
2023-04-18T19:09:35.392Z,46.30
2023-04-18T19:12:06.739Z,46.20
2023-04-18T19:14:35.096Z,46.80
2023-04-18T19:17:03.307Z,45.80
2023-04-18T19:19:31.849Z,45.80
2023-04-18T19:22:00.759Z,46.40
2023-04-18T19:24:29.163Z,45.60
2023-04-18T19:26:57.442Z,45.00
2023-04-18T19:29:25.973Z,44.30
2023-04-18T19:31:54.458Z,44.00
2023-04-18T19:34:23.080Z,43.90
2023-04-18T19:36:51.207Z,43.30
2023-04-18T19:39:19.459Z,43.80
2023-04-18T19:41:48.221Z,43.30
2023-04-18T19:44:16.280Z,43.80
2023-04-18T19:46:44.339Z,43.40
2023-04-18T19:49:13.049Z,43.20
2023-04-18T19:51:40.931Z,43.60
2023-04-18T19:54:09.235Z,44.10
2023-04-18T19:56:37.521Z,43.70
2023-04-18T19:59:05.885Z,43.60
2023-04-18T20:01:34.321Z,43.30
2023-04-18T20:04:02.889Z,43.30
2023-04-18T20:06:31.735Z,43.10
2023-04-18T20:08:59.856Z,42.60
2023-04-18T20:11:28.203Z,42.50
2023-04-18T20:13:56.405Z,49.70
2023-04-18T20:16:24.590Z,53.70
2023-04-18T20:18:54.836Z,56.30
2023-04-18T20:21:23.519Z,58.70
2023-04-18T20:23:51.840Z,56.60
2023-04-18T20:26:20.483Z,51.30
2023-04-18T20:28:48.724Z,50.60
2023-04-18T20:31:17.362Z,56.00
2023-04-18T20:33:45.604Z,58.20
2023-04-18T20:36:13.862Z,59.50
2023-04-18T20:38:41.917Z,55.40
2023-04-18T20:41:13.444Z,51.40
2023-04-18T20:45:00.442Z,48.60
2023-04-18T20:47:28.846Z,54.40
2023-04-18T20:49:57.010Z,57.90
2023-04-18T20:52:25.239Z,58.10
2023-04-18T20:54:53.611Z,52.30
2023-04-18T20:57:21.744Z,50.50
2023-04-18T20:59:49.943Z,49.10
2023-04-18T21:02:18.360Z,48.10
2023-04-18T21:04:46.517Z,47.30
2023-04-18T21:07:14.924Z,46.30
2023-04-18T21:09:43.150Z,46.10
2023-04-18T21:12:11.466Z,45.30
2023-04-18T21:14:40.005Z,45.20
2023-04-18T21:17:08.301Z,45.00
2023-04-18T21:19:37.037Z,44.20
2023-04-18T21:22:05.063Z,44.00
2023-04-18T21:24:33.195Z,43.60
2023-04-18T21:27:01.532Z,43.20
2023-04-18T21:29:29.744Z,42.80
2023-04-18T21:31:58.198Z,44.00
2023-04-18T21:34:26.667Z,44.20
2023-04-18T21:36:55.000Z,43.80
2023-04-18T21:39:23.312Z,43.50
2023-04-18T21:41:51.722Z,43.00
2023-04-18T21:44:20.095Z,42.70
2023-04-18T21:46:48.572Z,42.60
2023-04-18T21:49:16.950Z,42.40
2023-04-18T21:51:45.684Z,42.60
2023-04-18T21:54:13.777Z,42.10
2023-04-18T21:56:42.518Z,42.10
2023-04-18T21:59:13.367Z,41.90
2023-04-18T22:01:41.816Z,42.00
2023-04-18T22:04:10.561Z,41.60
2023-04-18T22:06:38.869Z,41.90
2023-04-18T22:09:07.282Z,41.60
2023-04-18T22:11:35.644Z,41.50
2023-04-18T22:14:03.924Z,41.30
2023-04-18T22:16:32.118Z,41.60
2023-04-18T22:19:00.364Z,41.40
2023-04-18T22:21:28.533Z,41.20
2023-04-18T22:23:56.735Z,41.00
2023-04-18T22:26:25.379Z,41.00
2023-04-18T22:28:53.491Z,41.10
2023-04-18T22:31:21.749Z,41.10
2023-04-18T22:33:50.149Z,41.10
2023-04-18T22:36:18.420Z,40.90
2023-04-18T22:38:49.461Z,40.80
2023-04-18T22:41:17.697Z,41.00
2023-04-18T22:43:46.138Z,40.90
2023-04-18T22:46:14.434Z,40.70
2023-04-18T22:48:42.740Z,41.00
2023-04-18T22:51:10.913Z,40.90
2023-04-18T22:53:39.148Z,40.80
2023-04-18T22:56:07.555Z,41.10
2023-04-18T22:58:35.935Z,40.80
2023-04-18T23:01:04.066Z,41.20
2023-04-18T23:03:32.847Z,40.90
2023-04-18T23:06:01.413Z,41.00
2023-04-18T23:08:29.501Z,41.00
2023-04-18T23:10:57.636Z,41.00
2023-04-18T23:13:26.652Z,40.90
2023-04-18T23:15:54.766Z,41.10
2023-04-18T23:18:23.109Z,40.90
2023-04-18T23:20:51.348Z,41.00
2023-04-18T23:23:19.521Z,47.60
2023-04-18T23:25:47.605Z,51.00
2023-04-18T23:28:16.112Z,53.60
2023-04-18T23:30:44.324Z,55.60
2023-04-18T23:33:12.494Z,49.80
2023-04-18T23:35:40.671Z,47.90
2023-04-18T23:38:09.126Z,47.10
2023-04-18T23:40:37.253Z,47.00
2023-04-18T23:43:06.877Z,54.00
2023-04-18T23:45:35.374Z,56.80
2023-04-18T23:48:03.574Z,58.50
2023-04-18T23:50:31.952Z,56.20
2023-04-18T23:53:00.007Z,51.60
2023-04-18T23:55:28.224Z,50.20
2023-04-18T23:57:56.376Z,49.30
